Time;durP1;ratioP1;P1;durP2;ratioP2;P2;SDS_P1;SDS_P2;PMS_P1;PMS_P2;Temp;Humidity;BMP_temperature;BMP_pressure;BME280_temperature;BME280_humidity;BME280_pressure;Samples;Min_cycle;Max_cycle;Signal;HPM_P1;HPM_P2
2021/03/16 00:01:21;;;;;;;9.02;5.93;;;23.60;45.20;;;;;;5074178;28;20090;-41
2021/03/16 00:03:48;;;;;;;9.88;5.90;;;23.60;44.60;;;;;;5074484;28;20040;-40
2021/03/16 00:06:16;;;;;;;9.73;5.88;;;23.60;44.60;;;;;;5073960;28;20044;-44
2021/03/16 00:08:43;;;;;;;10.73;6.45;;;23.60;44.60;;;;;;5074020;28;20048;-42
2021/03/16 00:11:10;;;;;;;9.02;6.07;;;23.60;44.60;;;;;;5075565;28;20388;-42
2021/03/16 00:13:37;;;;;;;10.15;6.45;;;23.60;44.60;;;;;;5075499;28;20054;-41
2021/03/16 00:16:04;;;;;;;9.45;5.65;;;23.60;44.60;;;;;;5075202;28;20056;-41
2021/03/16 00:18:31;;;;;;;9.27;6.03;;;23.60;44.60;;;;;;5074749;28;20094;-40
2021/03/16 00:20:58;;;;;;;9.40;5.88;;;23.60;44.60;;;;;;5074973;28;20044;-41
2021/03/16 00:23:25;;;;;;;10.10;5.95;;;23.60;44.60;;;;;;5075290;28;20067;-42
2021/03/16 00:25:51;;;;;;;9.13;5.78;;;23.60;44.60;;;;;;5075018;28;20056;-40
2021/03/16 00:28:19;;;;;;;9.20;5.88;;;23.60;44.60;;;;;;5073513;28;20068;-42
2021/03/16 00:30:45;;;;;;;10.27;6.63;;;23.60;44.60;;;;;;5073502;28;20041;-40
2021/03/16 00:33:13;;;;;;;8.38;5.38;;;23.60;44.60;;;;;;5072532;28;20044;-40
2021/03/16 00:35:40;;;;;;;8.90;6.07;;;23.60;44.60;;;;;;5074781;28;20084;-41
2021/03/16 00:38:07;;;;;;;10.45;6.30;;;23.60;44.60;;;;;;5074742;28;20083;-41
2021/03/16 00:40:33;;;;;;;9.55;5.95;;;23.60;44.60;;;;;;5073449;28;20044;-41
2021/03/16 00:43:00;;;;;;;8.70;5.72;;;23.60;44.60;;;;;;5075144;28;20048;-42
2021/03/16 00:45:27;;;;;;;8.93;5.78;;;23.50;44.50;;;;;;5073743;28;20067;-41
2021/03/16 00:47:53;;;;;;;10.00;6.22;;;23.60;44.60;;;;;;5074613;28;20051;-41
2021/03/16 00:50:20;;;;;;;8.50;5.30;;;23.50;44.50;;;;;;5073157;28;20048;-42
2021/03/16 00:52:54;;;;;;;9.88;5.70;;;23.60;44.60;;;;;;5074305;28;20110;-41
2021/03/16 00:55:33;;;;;;;9.23;5.65;;;23.60;44.60;;;;;;5073290;28;20072;-41
2021/03/16 00:58:00;;;;;;;8.88;5.53;;;23.50;44.50;;;;;;5076036;28;20051;-42
2021/03/16 01:00:27;;;;;;;8.68;5.53;;;23.60;44.60;;;;;;5071975;28;20045;-42
2021/03/16 01:02:54;;;;;;;7.55;5.40;;;23.50;44.50;;;;;;5072941;28;20457;-43
2021/03/16 01:05:21;;;;;;;9.40;6.22;;;23.60;44.60;;;;;;5072892;28;20093;-42
2021/03/16 01:07:47;;;;;;;8.02;5.45;;;23.50;44.50;;;;;;5073412;28;20049;-41
2021/03/16 01:10:17;;;;;;;8.27;5.93;;;23.50;44.50;;;;;;5074009;28;20044;-41
2021/03/16 01:12:45;;;;;;;8.95;5.50;;;23.50;44.50;;;;;;5075493;28;20071;-45
2021/03/16 01:15:15;;;;;;;8.23;5.57;;;23.60;44.70;;;;;;5073854;28;20389;-43
2021/03/16 01:17:42;;;;;;;9.27;5.30;;;23.50;44.50;;;;;;5075217;28;20056;-43
2021/03/16 01:20:15;;;;;;;8.18;5.45;;;23.50;44.50;;;;;;5073996;28;20102;-43
2021/03/16 01:22:42;;;;;;;6.65;4.90;;;23.50;44.50;;;;;;5073970;28;20066;-44
2021/03/16 01:25:09;;;;;;;8.52;5.43;;;23.50;44.50;;;;;;5071608;28;20044;-47
2021/03/16 01:27:36;;;;;;;8.65;5.57;;;23.50;44.50;;;;;;5073889;28;20416;-43
2021/03/16 01:30:05;;;;;;;8.98;5.70;;;23.50;44.50;;;;;;5072610;28;20523;-43
2021/03/16 01:32:32;;;;;;;8.05;5.28;;;23.50;44.50;;;;;;5072099;28;20047;-42
2021/03/16 01:34:59;;;;;;;8.73;5.53;;;23.50;44.50;;;;;;5072253;28;20094;-44
2021/03/16 01:37:27;;;;;;;6.93;4.88;;;23.50;44.50;;;;;;5073914;28;20045;-45
2021/03/16 01:39:53;;;;;;;8.30;5.53;;;23.50;44.50;;;;;;5056135;28;20052;-43
2021/03/16 01:42:20;;;;;;;9.10;5.78;;;23.50;44.50;;;;;;5074059;28;20067;-46
2021/03/16 01:44:47;;;;;;;7.47;5.00;;;23.50;44.50;;;;;;5072836;28;20067;-44
2021/03/16 01:47:15;;;;;;;9.30;5.05;;;23.50;44.50;;;;;;5072348;28;20504;-44
2021/03/16 01:49:43;;;;;;;7.75;5.03;;;23.50;44.50;;;;;;5074580;28;20135;-46
2021/03/16 01:52:11;;;;;;;8.65;5.68;;;23.50;44.50;;;;;;5071044;28;20044;-43
2021/03/16 01:54:41;;;;;;;7.85;5.18;;;23.50;44.50;;;;;;5074575;28;20106;-44
2021/03/16 01:57:10;;;;;;;7.45;5.15;;;23.50;44.50;;;;;;5072346;28;20096;-43
2021/03/16 01:59:37;;;;;;;7.43;4.80;;;23.50;44.50;;;;;;5072659;28;20041;-41
2021/03/16 02:02:05;;;;;;;7.20;4.65;;;23.50;44.50;;;;;;5072182;28;20051;-43
2021/03/16 02:04:32;;;;;;;7.55;4.80;;;23.50;44.50;;;;;;5074657;28;20396;-42
2021/03/16 02:07:04;;;;;;;8.85;4.93;;;23.50;44.50;;;;;;5072996;28;20496;-42
2021/03/16 02:09:52;;;;;;;7.72;5.03;;;23.50;44.50;;;;;;5072547;28;20516;-42
2021/03/16 02:12:52;;;;;;;7.13;5.13;;;23.50;44.50;;;;;;5054885;28;20079;-41
2021/03/16 02:15:23;;;;;;;7.15;4.72;;;23.50;44.50;;;;;;5072007;28;20053;-42
2021/03/16 02:17:54;;;;;;;6.68;4.50;;;23.50;44.50;;;;;;5073146;28;20041;-41
2021/03/16 02:20:41;;;;;;;6.55;4.30;;;23.50;44.50;;;;;;5072835;28;20101;-42
2021/03/16 02:23:09;;;;;;;7.47;4.68;;;23.50;44.50;;;;;;5055853;28;20087;-44
2021/03/16 02:25:54;;;;;;;8.10;4.90;;;23.50;44.50;;;;;;5072549;28;20048;-44
2021/03/16 02:28:51;;;;;;;7.53;4.72;;;23.50;44.50;;;;;;5073078;28;20684;-42
2021/03/16 02:31:18;;;;;;;8.52;4.95;;;23.40;44.50;;;;;;5058140;28;20048;-43
2021/03/16 02:33:47;;;;;;;7.15;4.70;;;23.50;44.50;;;;;;5073579;28;20412;-41
2021/03/16 02:36:14;;;;;;;7.78;4.60;;;23.40;44.40;;;;;;5071327;28;20446;-42
2021/03/16 02:38:47;;;;;;;7.28;4.90;;;23.40;44.50;;;;;;5072245;28;20040;-41
2021/03/16 02:41:17;;;;;;;7.10;4.38;;;23.50;44.50;;;;;;5073689;28;20550;-42
2021/03/16 02:43:45;;;;;;;8.02;4.80;;;23.40;44.40;;;;;;5073841;28;20045;-41
2021/03/16 02:46:13;;;;;;;8.35;4.85;;;23.50;44.50;;;;;;5071236;28;20102;-41
2021/03/16 02:48:43;;;;;;;7.18;4.53;;;23.50;44.50;;;;;;5072032;28;20076;-42
2021/03/16 02:51:10;;;;;;;6.47;4.28;;;23.50;44.50;;;;;;5071176;28;20150;-41
2021/03/16 02:53:39;;;;;;;6.70;4.10;;;23.40;44.40;;;;;;5070888;28;20049;-41
2021/03/16 02:56:07;;;;;;;7.07;4.35;;;23.40;44.40;;;;;;5072097;28;20048;-42
2021/03/16 02:58:34;;;;;;;7.32;4.22;;;23.40;44.40;;;;;;5072085;28;20071;-42
2021/03/16 03:01:02;;;;;;;6.85;4.32;;;23.40;44.40;;;;;;5069736;28;20036;-42
2021/03/16 03:03:30;;;;;;;6.43;4.30;;;23.50;44.50;;;;;;5072095;28;20045;-41
2021/03/16 03:05:59;;;;;;;7.78;4.50;;;23.40;44.50;;;;;;5072249;28;20499;-41
2021/03/16 03:08:27;;;;;;;6.25;4.15;;;23.40;44.50;;;;;;5071000;28;20044;-44
2021/03/16 03:10:56;;;;;;;7.10;4.43;;;23.40;44.40;;;;;;5072179;28;20056;-41
2021/03/16 03:13:23;;;;;;;6.07;4.10;;;23.50;44.50;;;;;;5071818;28;20051;-41
2021/03/16 03:15:49;;;;;;;6.65;4.30;;;23.40;44.40;;;;;;5071716;28;20489;-41
2021/03/16 03:18:16;;;;;;;7.45;4.40;;;23.50;44.50;;;;;;5072981;28;20052;-41
2021/03/16 03:20:43;;;;;;;6.15;3.92;;;23.40;44.40;;;;;;5070702;28;20040;-41
2021/03/16 03:23:23;;;;;;;7.75;4.70;;;23.40;44.40;;;;;;5070288;28;20484;-41
2021/03/16 03:25:58;;;;;;;5.47;3.72;;;23.40;44.40;;;;;;5073268;28;20411;-41
2021/03/16 03:28:28;;;;;;;5.40;3.92;;;23.40;44.40;;;;;;5072565;28;20431;-41
2021/03/16 03:30:59;;;;;;;5.82;3.97;;;23.40;44.40;;;;;;5069775;28;20071;-42
2021/03/16 03:33:29;;;;;;;6.68;4.20;;;23.40;44.40;;;;;;5070604;28;20041;-41
2021/03/16 03:36:01;;;;;;;6.07;4.05;;;23.40;44.40;;;;;;5073170;28;20074;-43
2021/03/16 03:38:31;;;;;;;5.55;3.90;;;23.40;45.00;;;;;;5071646;28;20063;-41
2021/03/16 03:40:59;;;;;;;5.40;3.47;;;23.40;44.40;;;;;;5071980;28;20048;-42
2021/03/16 03:43:27;;;;;;;7.22;4.10;;;23.40;44.40;;;;;;5071805;28;20457;-42
2021/03/16 03:45:55;;;;;;;5.85;3.90;;;23.40;44.40;;;;;;5070558;28;20074;-42
2021/03/16 03:48:26;;;;;;;5.60;3.85;;;23.40;44.40;;;;;;5071396;28;20051;-41
2021/03/16 03:50:55;;;;;;;5.97;3.67;;;23.40;44.40;;;;;;5071319;28;20554;-43
2021/03/16 03:53:23;;;;;;;5.65;3.80;;;23.40;44.40;;;;;;5071456;28;20040;-44
2021/03/16 03:55:52;;;;;;;5.88;4.00;;;23.40;44.40;;;;;;5071509;28;20040;-41
2021/03/16 03:58:21;;;;;;;5.78;4.22;;;23.40;44.40;;;;;;5072704;28;20047;-43
2021/03/16 04:00:48;;;;;;;5.72;3.67;;;23.40;44.40;;;;;;5071715;28;20098;-41
2021/03/16 04:03:15;;;;;;;6.47;4.07;;;23.40;44.30;;;;;;5071298;28;20055;-41
2021/03/16 04:05:43;;;;;;;5.93;3.90;;;23.40;44.40;;;;;;5052740;28;20049;-41
2021/03/16 04:08:10;;;;;;;5.57;3.85;;;23.40;44.30;;;;;;5071593;28;20090;-41
2021/03/16 04:10:38;;;;;;;6.20;4.00;;;23.30;44.30;;;;;;5071632;28;20052;-41
2021/03/16 04:13:06;;;;;;;6.07;3.90;;;23.30;44.30;;;;;;5070105;28;20052;-41
2021/03/16 04:15:33;;;;;;;5.32;3.80;;;23.40;44.40;;;;;;5071292;28;20078;-42
2021/03/16 04:18:01;;;;;;;6.30;4.07;;;23.30;44.30;;;;;;5069950;28;20049;-43
2021/03/16 04:20:28;;;;;;;5.65;3.50;;;23.40;44.40;;;;;;5070949;28;20052;-41
2021/03/16 04:22:55;;;;;;;6.95;4.10;;;23.30;44.30;;;;;;5071712;28;20541;-46
2021/03/16 04:25:22;;;;;;;5.63;3.65;;;23.30;44.30;;;;;;5069500;28;20094;-45
2021/03/16 04:27:48;;;;;;;5.85;3.45;;;23.40;44.30;;;;;;5068521;28;20095;-46
2021/03/16 04:30:16;;;;;;;6.20;3.97;;;23.30;44.30;;;;;;5070084;28;20373;-43
2021/03/16 04:32:42;;;;;;;6.45;3.85;;;23.30;44.30;;;;;;5068769;28;20484;-45
2021/03/16 04:35:09;;;;;;;6.05;4.00;;;23.30;44.30;;;;;;5073594;28;20114;-45
2021/03/16 04:37:39;;;;;;;5.35;3.72;;;23.30;44.30;;;;;;5073536;28;20048;-42
2021/03/16 04:40:07;;;;;;;6.10;3.47;;;23.30;44.30;;;;;;5075047;28;20067;-47
2021/03/16 04:42:34;;;;;;;4.95;3.55;;;23.40;44.40;;;;;;5074870;28;20059;-42
2021/03/16 04:45:01;;;;;;;5.93;3.70;;;23.30;44.30;;;;;;5074787;28;20036;-42
2021/03/16 04:47:27;;;;;;;4.40;3.28;;;23.40;44.40;;;;;;5074775;28;20052;-44
2021/03/16 04:49:54;;;;;;;6.50;3.55;;;23.40;44.30;;;;;;5074905;28;20044;-42
2021/03/16 04:52:21;;;;;;;6.32;4.18;;;23.30;44.30;;;;;;5073180;28;20044;-41
2021/03/16 04:54:48;;;;;;;6.45;3.90;;;23.40;44.30;;;;;;5074792;28;20067;-41
2021/03/16 04:57:14;;;;;;;5.20;3.45;;;23.30;44.30;;;;;;5073317;28;20078;-42
2021/03/16 04:59:41;;;;;;;4.90;3.05;;;23.40;44.30;;;;;;5057992;28;20045;-42
2021/03/16 05:02:08;;;;;;;5.75;3.50;;;23.30;44.30;;;;;;5074672;28;20045;-42
2021/03/16 05:04:34;;;;;;;5.13;3.45;;;23.30;44.30;;;;;;5074891;28;20456;-42
2021/03/16 05:07:01;;;;;;;5.32;3.33;;;23.30;44.30;;;;;;5074444;28;20055;-42
2021/03/16 05:09:28;;;;;;;5.32;3.28;;;23.30;44.30;;;;;;5074305;28;20059;-42
2021/03/16 05:11:55;;;;;;;4.93;3.33;;;23.40;44.30;;;;;;5075819;28;20071;-41
2021/03/16 05:14:21;;;;;;;4.00;2.92;;;23.30;44.20;;;;;;5072989;28;20503;-41
2021/03/16 05:16:48;;;;;;;4.97;3.17;;;23.40;44.30;;;;;;5073889;28;20049;-41
2021/03/16 05:19:15;;;;;;;6.25;3.40;;;23.30;44.20;;;;;;5074055;28;20452;-42
2021/03/16 05:21:42;;;;;;;4.13;2.92;;;23.40;44.30;;;;;;5074548;28;20446;-43
2021/03/16 05:24:09;;;;;;;6.72;3.42;;;23.30;44.30;;;;;;5073917;28;20052;-42
2021/03/16 05:26:36;;;;;;;5.57;3.50;;;23.30;44.20;;;;;;5073448;28;20110;-42
2021/03/16 05:29:03;;;;;;;5.45;3.65;;;23.30;44.20;;;;;;5073985;28;20411;-41
2021/03/16 05:31:30;;;;;;;4.57;2.97;;;23.30;44.20;;;;;;5071320;28;20058;-41
2021/03/16 05:33:57;;;;;;;4.25;3.08;;;23.30;44.30;;;;;;5072745;28;20049;-41
2021/03/16 05:36:24;;;;;;;5.03;3.13;;;23.30;44.20;;;;;;5072465;28;20060;-41
2021/03/16 05:38:51;;;;;;;5.05;3.58;;;23.30;44.30;;;;;;5072613;28;20045;-40
2021/03/16 05:41:18;;;;;;;5.22;3.28;;;23.30;44.20;;;;;;5073849;28;20044;-41
2021/03/16 05:43:47;;;;;;;5.00;3.22;;;23.30;44.20;;;;;;5072230;28;20044;-41
2021/03/16 05:46:14;;;;;;;4.22;2.90;;;23.30;44.30;;;;;;5073374;28;20049;-42
2021/03/16 05:48:47;;;;;;;4.78;3.17;;;23.30;44.20;;;;;;5071922;28;20049;-41
2021/03/16 05:51:15;;;;;;;4.50;2.85;;;23.30;44.20;;;;;;5073588;28;20489;-40
2021/03/16 05:53:50;;;;;;;5.25;3.25;;;23.30;44.20;;;;;;5057509;28;20040;-41
2021/03/16 05:56:17;;;;;;;;;;;23.30;44.20;;;;;;5074392;28;20079;-41
2021/03/16 05:58:44;;;;;;;4.93;3.08;;;23.30;44.30;;;;;;5073389;28;20019;-41
2021/03/16 06:01:13;;;;;;;4.47;3.15;;;23.30;44.20;;;;;;5071774;28;20049;-42
2021/03/16 06:03:41;;;;;;;4.78;3.20;;;23.30;44.20;;;;;;5073231;28;20052;-41
2021/03/16 06:06:09;;;;;;;5.82;3.38;;;23.30;44.20;;;;;;5071899;28;20048;-41
2021/03/16 06:08:36;;;;;;;4.28;2.97;;;23.30;44.30;;;;;;5073184;28;20053;-41
2021/03/16 06:11:06;;;;;;;4.70;2.72;;;23.30;44.20;;;;;;5073306;28;20041;-41
2021/03/16 06:13:35;;;;;;;4.53;2.88;;;23.30;44.20;;;;;;5074310;28;20040;-41
2021/03/16 06:16:25;;;;;;;5.70;3.63;;;23.30;44.20;;;;;;5074392;28;20408;-45
2021/03/16 06:18:52;;;;;;;4.60;3.08;;;23.30;44.20;;;;;;5071340;28;20116;-41
2021/03/16 06:21:21;;;;;;;5.28;3.20;;;23.30;44.20;;;;;;5054839;28;20051;-41
2021/03/16 06:24:06;;;;;;;4.78;3.28;;;23.30;44.20;;;;;;5072638;28;20046;-41
2021/03/16 06:26:33;;;;;;;4.55;3.10;;;23.30;44.20;;;;;;5070497;28;20435;-42
2021/03/16 06:29:10;;;;;;;4.00;2.78;;;23.30;44.20;;;;;;5072954;28;20057;-41
2021/03/16 06:31:39;;;;;;;5.05;3.08;;;23.30;44.20;;;;;;5061244;28;20055;-41
2021/03/16 06:34:27;;;;;;;5.57;3.03;;;23.30;44.20;;;;;;5071752;28;20053;-42
2021/03/16 06:37:01;;;;;;;4.45;2.95;;;23.30;44.20;;;;;;5055951;28;20087;-41
2021/03/16 06:39:29;;;;;;;3.78;2.97;;;23.30;44.20;;;;;;5072443;28;20140;-41
2021/03/16 06:41:55;;;;;;;4.05;2.75;;;23.30;44.20;;;;;;5069526;28;20045;-41
2021/03/16 06:44:24;;;;;;;4.47;3.05;;;23.30;44.20;;;;;;5070720;28;20063;-41
2021/03/16 06:46:59;;;;;;;3.67;2.75;;;23.30;44.20;;;;;;5068708;28;20045;-44
2021/03/16 06:49:26;;;;;;;4.25;2.83;;;23.30;44.30;;;;;;5069685;28;20385;-42
2021/03/16 06:51:54;;;;;;;4.97;3.22;;;23.30;44.30;;;;;;5070066;28;20059;-41
2021/03/16 06:54:24;;;;;;;4.63;3.17;;;23.30;44.40;;;;;;5070065;28;20076;-41
2021/03/16 06:56:52;;;;;;;4.05;2.40;;;23.30;44.40;;;;;;5069732;28;20053;-42
2021/03/16 06:59:24;;;;;;;3.95;2.33;;;23.30;43.60;;;;;;5070251;28;20036;-41
2021/03/16 07:01:51;;;;;;;3.05;1.88;;;23.30;42.30;;;;;;5071421;28;20041;-42
2021/03/16 07:04:23;;;;;;;3.90;2.30;;;23.30;41.50;;;;;;5071144;28;20498;-42
2021/03/16 07:06:50;;;;;;;2.42;1.90;;;23.20;40.70;;;;;;5071395;28;20063;-40
2021/03/16 07:09:19;;;;;;;4.32;1.90;;;23.30;40.00;;;;;;5056641;28;20086;-43
2021/03/16 07:11:51;;;;;;;3.88;1.95;;;23.20;39.80;;;;;;5070928;28;20051;-41
2021/03/16 07:14:20;;;;;;;3.15;1.80;;;23.20;39.00;;;;;;5070088;28;20048;-41
2021/03/16 07:16:49;;;;;;;2.83;1.83;;;23.10;38.70;;;;;;5070317;28;20053;-42
2021/03/16 07:19:18;;;;;;;4.70;1.65;;;23.10;38.30;;;;;;5070931;28;20048;-41
2021/03/16 07:21:50;;;;;;;4.05;1.77;;;23.10;38.60;;;;;;5070614;28;20097;-41
2021/03/16 07:24:27;;;;;;;3.47;1.45;;;23.10;39.40;;;;;;5071502;28;20044;-43
2021/03/16 07:26:55;;;;;;;2.92;1.77;;;23.10;39.50;;;;;;5068270;28;20504;-41
2021/03/16 07:29:23;;;;;;;3.20;1.58;;;23.10;39.40;;;;;;5067848;28;20053;-44
2021/03/16 07:32:03;;;;;;;2.35;1.20;;;23.10;39.40;;;;;;5067368;28;20070;-41
2021/03/16 07:34:37;;;;;;;5.32;1.58;;;23.10;39.60;;;;;;5070011;28;20044;-44
2021/03/16 07:37:06;;;;;;;3.80;1.30;;;23.10;39.80;;;;;;5069317;28;20048;-43
2021/03/16 07:39:34;;;;;;;2.53;1.33;;;23.10;40.00;;;;;;5069471;28;20215;-41
2021/03/16 07:42:01;;;;;;;2.92;1.52;;;23.20;40.30;;;;;;5069418;28;20132;-42
2021/03/16 07:44:29;;;;;;;2.85;1.50;;;23.20;40.30;;;;;;5069495;28;20139;-48
2021/03/16 07:47:02;;;;;;;2.67;1.33;;;23.20;40.50;;;;;;5070569;28;20048;-41
2021/03/16 07:49:41;;;;;;;3.08;1.42;;;23.20;40.60;;;;;;5071308;28;20052;-44
2021/03/16 07:52:20;;;;;;;6.00;1.60;;;23.20;40.70;;;;;;5070063;28;20052;-42
2021/03/16 07:54:49;;;;;;;4.43;1.52;;;23.20;40.90;;;;;;5069310;28;20053;-41
2021/03/16 07:57:31;;;;;;;5.53;1.20;;;23.20;41.00;;;;;;5069449;28;20059;-42
2021/03/16 08:00:06;;;;;;;3.00;1.65;;;23.30;41.10;;;;;;5069287;28;20442;-47
2021/03/16 08:02:36;;;;;;;2.10;1.40;;;23.30;41.20;;;;;;5070211;28;20048;-42
2021/03/16 08:05:17;;;;;;;2.60;1.30;;;23.20;41.20;;;;;;5070368;28;20051;-42
2021/03/16 08:07:44;;;;;;;4.20;1.30;;;23.30;41.40;;;;;;5070006;28;20419;-42
2021/03/16 08:10:11;;;;;;;8.63;1.50;;;23.30;41.80;;;;;;5073572;28;20132;-45
2021/03/16 08:12:38;;;;;;;7.10;1.60;;;23.30;42.20;;;;;;5072924;28;20448;-41
2021/03/16 08:15:13;;;;;;;5.47;1.58;;;23.40;42.40;;;;;;5074460;28;20106;-43
2021/03/16 08:17:41;;;;;;;3.47;1.30;;;23.40;42.50;;;;;;5072951;28;20082;-45
2021/03/16 08:20:24;;;;;;;4.07;1.30;;;23.30;42.60;;;;;;5073356;28;20047;-42
2021/03/16 08:23:01;;;;;;;2.42;1.15;;;23.40;42.80;;;;;;5063403;28;20040;-45
2021/03/16 08:25:28;;;;;;;2.80;1.35;;;23.40;42.80;;;;;;5072670;28;20052;-42
2021/03/16 08:27:55;;;;;;;4.53;1.40;;;23.40;42.90;;;;;;5072430;28;20089;-40
2021/03/16 08:30:22;;;;;;;3.15;1.50;;;23.40;42.90;;;;;;5071931;28;20048;-41
2021/03/16 08:32:48;;;;;;;4.53;1.65;;;23.40;41.90;;;;;;5074016;28;20056;-41
2021/03/16 08:35:18;;;;;;;5.38;1.48;;;23.40;41.40;;;;;;5073484;28;20102;-42
2021/03/16 08:37:49;;;;;;;7.72;1.70;;;23.30;40.40;;;;;;5072889;28;20059;-41
2021/03/16 08:40:24;;;;;;;2.92;1.73;;;23.30;39.50;;;;;;5071581;28;20454;-45
2021/03/16 08:42:51;;;;;;;9.90;1.40;;;23.30;40.00;;;;;;5072900;28;20040;-42
2021/03/16 08:45:29;;;;;;;3.55;1.27;;;23.30;40.20;;;;;;5074755;28;20408;-40
2021/03/16 08:47:55;;;;;;;6.65;1.38;;;23.30;39.90;;;;;;5074425;28;20391;-41
2021/03/16 08:50:26;;;;;;;5.03;1.40;;;23.30;40.00;;;;;;5070942;28;20168;-41
2021/03/16 08:52:53;;;;;;;4.10;1.50;;;23.30;40.10;;;;;;5073749;28;20048;-41
2021/03/16 08:55:25;;;;;;;4.22;1.63;;;23.30;40.30;;;;;;5073150;28;20075;-42
2021/03/16 08:57:53;;;;;;;7.35;1.30;;;23.30;40.40;;;;;;5073219;28;20063;-40
2021/03/16 09:00:28;;;;;;;3.97;1.42;;;23.40;40.60;;;;;;5072216;28;20044;-42
2021/03/16 09:02:54;;;;;;;2.58;1.13;;;23.40;40.70;;;;;;5072360;28;20056;-41
2021/03/16 09:05:26;;;;;;;7.25;1.60;;;23.30;40.70;;;;;;5075110;28;20073;-41
2021/03/16 09:08:00;;;;;;;4.25;1.35;;;23.30;40.70;;;;;;5073437;28;20048;-41
2021/03/16 09:10:27;;;;;;;;;;;23.30;40.90;;;;;;5073110;28;20048;-40
2021/03/16 09:12:54;;;;;;;4.65;1.35;;;23.40;41.00;;;;;;5071505;28;19927;-41
2021/03/16 09:15:26;;;;;;;4.68;1.70;;;23.40;41.10;;;;;;5073067;28;20127;-43
2021/03/16 09:18:03;;;;;;;3.38;1.30;;;23.40;41.10;;;;;;5072280;28;20180;-41
2021/03/16 09:20:33;;;;;;;3.60;1.30;;;23.40;41.20;;;;;;5073765;28;20049;-42
2021/03/16 09:23:07;;;;;;;5.45;2.03;;;23.40;41.30;;;;;;5074920;28;20044;-41
2021/03/16 09:25:45;;;;;;;4.22;1.30;;;23.40;41.40;;;;;;5073990;28;20080;-41
2021/03/16 09:28:14;;;;;;;2.88;1.38;;;23.40;41.50;;;;;;5071848;28;20098;-42
2021/03/16 09:30:53;;;;;;;3.08;1.20;;;23.40;41.50;;;;;;5073111;28;20160;-41
2021/03/16 09:33:23;;;;;;;3.35;1.27;;;23.50;41.70;;;;;;5072858;28;20048;-41
2021/03/16 09:35:57;;;;;;;2.40;1.20;;;23.40;41.70;;;;;;5071935;28;20057;-42
2021/03/16 09:38:24;;;;;;;3.85;1.23;;;23.50;41.80;;;;;;5069676;28;20155;-42
2021/03/16 09:40:52;;;;;;;2.25;1.40;;;23.40;41.80;;;;;;5072617;28;20048;-42
2021/03/16 09:43:29;;;;;;;3.28;1.38;;;23.50;42.00;;;;;;5073820;28;20048;-42
2021/03/16 09:46:02;;;;;;;3.03;1.73;;;23.50;42.00;;;;;;5062592;28;20458;-41
2021/03/16 09:48:30;;;;;;;4.55;2.10;;;23.50;42.20;;;;;;5072363;28;20499;-41
2021/03/16 09:51:11;;;;;;;3.75;1.80;;;23.50;42.20;;;;;;5073425;28;20102;-41
2021/03/16 09:53:40;;;;;;;4.40;1.83;;;23.50;42.40;;;;;;5071866;28;20055;-43
2021/03/16 09:56:09;;;;;;;4.25;1.75;;;23.50;42.40;;;;;;5070698;28;20048;-41
2021/03/16 09:58:36;;;;;;;4.60;1.95;;;23.50;42.60;;;;;;5070395;28;20055;-42
2021/03/16 10:01:04;;;;;;;3.47;2.15;;;23.50;42.60;;;;;;5071445;28;20041;-44
2021/03/16 10:03:32;;;;;;;4.43;2.13;;;23.50;42.60;;;;;;5072504;28;20045;-42
2021/03/16 10:06:07;;;;;;;4.03;1.98;;;23.50;42.70;;;;;;5073052;28;20045;-41
2021/03/16 10:08:35;;;;;;;7.03;2.40;;;23.50;42.70;;;;;;5071794;28;20116;-42
2021/03/16 10:11:02;;;;;;;4.70;2.33;;;23.50;42.80;;;;;;5073570;28;20556;-41
2021/03/16 10:13:36;;;;;;;3.63;2.10;;;23.60;42.90;;;;;;5071925;28;20089;-43
2021/03/16 10:16:08;;;;;;;5.75;2.25;;;23.50;42.90;;;;;;5072403;28;20492;-41
2021/03/16 10:18:41;;;;;;;7.10;2.63;;;23.60;43.00;;;;;;5073581;28;20045;-40
2021/03/16 10:21:12;;;;;;;6.93;2.83;;;23.60;43.10;;;;;;5071861;28;20079;-41
2021/03/16 10:23:38;;;;;;;5.60;2.53;;;23.60;43.20;;;;;;5072333;28;20104;-43
2021/03/16 10:26:07;;;;;;;7.22;3.17;;;23.60;43.20;;;;;;5072028;28;20071;-42
2021/03/16 10:28:39;;;;;;;9.80;2.83;;;23.60;43.30;;;;;;5070191;28;20052;-41
2021/03/16 10:31:14;;;;;;;4.22;2.70;;;23.60;43.40;;;;;;5069354;28;20397;-42
2021/03/16 10:33:42;;;;;;;9.63;3.30;;;23.60;43.50;;;;;;5071116;28;20094;-42
2021/03/16 10:36:10;;;;;;;6.70;3.20;;;23.60;43.50;;;;;;5072074;28;20080;-42
2021/03/16 10:38:37;;;;;;;6.97;2.90;;;23.60;43.60;;;;;;5070429;28;20062;-41
2021/03/16 10:41:04;;;;;;;6.18;3.30;;;23.60;43.70;;;;;;5070207;28;20057;-42
2021/03/16 10:43:31;;;;;;;8.38;3.53;;;23.60;43.70;;;;;;5072751;28;20101;-43
2021/03/16 10:46:00;;;;;;;11.88;3.90;;;23.60;43.90;;;;;;5072137;28;20044;-42
2021/03/16 10:48:33;;;;;;;16.15;3.88;;;23.70;44.10;;;;;;5071266;28;20064;-42
2021/03/16 10:51:00;;;;;;;9.38;3.88;;;23.60;44.30;;;;;;5070766;28;20558;-46
2021/03/16 10:53:28;;;;;;;7.43;3.60;;;23.60;44.30;;;;;;5070063;28;20166;-45
2021/03/16 10:56:00;;;;;;;11.15;4.07;;;23.70;44.50;;;;;;5071188;28;20060;-43
2021/03/16 10:58:28;;;;;;;9.35;3.45;;;23.60;44.40;;;;;;5071777;28;20056;-42
2021/03/16 11:00:55;;;;;;;9.40;3.83;;;23.60;44.40;;;;;;5070505;28;20048;-43
2021/03/16 11:03:29;;;;;;;7.00;3.77;;;23.70;44.50;;;;;;5069513;28;20044;-41
2021/03/16 11:05:56;;;;;;;8.32;3.92;;;23.60;44.50;;;;;;5071417;28;20279;-42
2021/03/16 11:08:23;;;;;;;10.30;4.05;;;23.60;44.60;;;;;;5071798;28;20041;-41
2021/03/16 11:10:50;;;;;;;13.07;4.32;;;23.60;44.60;;;;;;5070051;28;20052;-41
2021/03/16 11:13:17;;;;;;;8.73;4.28;;;23.60;44.90;;;;;;5070448;28;20048;-41
2021/03/16 11:15:46;;;;;;;7.97;3.78;;;23.60;45.00;;;;;;5073058;28;20055;-41
2021/03/16 11:18:19;;;;;;;14.32;4.38;;;23.70;45.10;;;;;;5070235;28;20496;-41
2021/03/16 11:20:46;;;;;;;9.20;4.50;;;23.60;45.10;;;;;;5069138;28;20489;-41
2021/03/16 11:23:14;;;;;;;8.50;4.70;;;23.60;45.20;;;;;;5070287;28;20046;-41
2021/03/16 11:25:40;;;;;;;11.57;4.57;;;23.70;45.30;;;;;;5071436;28;20059;-43
2021/03/16 11:28:07;;;;;;;11.93;5.45;;;23.70;45.40;;;;;;5071162;28;20411;-41
2021/03/16 11:30:34;;;;;;;8.88;5.30;;;23.70;45.40;;;;;;5070131;28;20074;-42
2021/03/16 11:33:02;;;;;;;11.63;5.32;;;23.60;45.40;;;;;;5070207;28;20052;-42
2021/03/16 11:35:29;;;;;;;9.52;5.38;;;23.60;45.40;;;;;;5070178;28;20051;-41
2021/03/16 11:37:55;;;;;;;9.15;5.13;;;23.60;45.40;;;;;;5072047;28;20044;-41
2021/03/16 11:40:22;;;;;;;14.75;5.75;;;23.60;45.40;;;;;;5069731;28;20056;-43
2021/03/16 11:42:49;;;;;;;13.07;5.03;;;23.60;45.40;;;;;;5070066;28;20049;-41
2021/03/16 11:45:16;;;;;;;20.17;6.03;;;23.70;45.50;;;;;;5071532;28;20072;-41
2021/03/16 11:47:42;;;;;;;11.88;5.53;;;23.60;45.40;;;;;;5070043;28;20049;-41
2021/03/16 11:50:10;;;;;;;14.82;5.75;;;23.70;45.50;;;;;;5070467;28;20045;-41
2021/03/16 11:52:37;;;;;;;13.25;5.80;;;23.70;45.50;;;;;;5071479;28;20053;-40
2021/03/16 11:55:07;;;;;;;10.13;5.45;;;23.70;45.50;;;;;;5071235;28;20063;-41
2021/03/16 11:57:33;;;;;;;14.70;5.97;;;23.70;45.40;;;;;;5072778;28;20145;-41
2021/03/16 12:00:01;;;;;;;13.13;5.95;;;23.70;45.40;;;;;;5070929;28;20102;-41
2021/03/16 12:02:32;;;;;;;13.95;5.78;;;23.70;45.40;;;;;;5071298;28;20515;-40
2021/03/16 12:05:00;;;;;;;12.20;6.45;;;23.70;45.40;;;;;;5070209;28;20041;-41
2021/03/16 12:07:27;;;;;;;11.07;5.95;;;23.70;45.30;;;;;;5069940;28;20049;-41
2021/03/16 12:09:54;;;;;;;15.23;6.30;;;23.70;45.30;;;;;;5072309;28;20056;-42
2021/03/16 12:12:21;;;;;;;11.00;6.03;;;23.70;45.30;;;;;;5072400;28;20047;-41
2021/03/16 12:14:48;;;;;;;13.93;6.30;;;23.70;45.30;;;;;;5071431;28;20492;-42
2021/03/16 12:17:15;;;;;;;12.13;6.57;;;23.70;45.30;;;;;;5069904;28;20060;-40
2021/03/16 12:19:42;;;;;;;14.10;6.07;;;23.70;45.20;;;;;;5070998;28;20082;-41
2021/03/16 12:22:09;;;;;;;14.52;6.55;;;23.70;45.20;;;;;;5071645;28;20122;-42
2021/03/16 12:24:36;;;;;;;13.05;6.25;;;23.70;45.40;;;;;;5069839;28;20041;-41
2021/03/16 12:27:03;;;;;;;15.88;6.88;;;23.70;45.20;;;;;;5069562;28;20057;-41
2021/03/16 12:29:30;;;;;;;14.32;6.28;;;23.70;45.20;;;;;;5070538;28;20049;-41
2021/03/16 12:31:57;;;;;;;11.65;6.07;;;23.70;45.20;;;;;;5070282;28;20184;-41
2021/03/16 12:34:40;;;;;;;12.68;6.20;;;23.70;45.20;;;;;;5071373;28;20053;-41
2021/03/16 12:37:08;;;;;;;11.48;6.07;;;23.70;45.20;;;;;;5072215;28;20045;-41
2021/03/16 12:39:36;;;;;;;12.70;6.40;;;23.70;45.20;;;;;;5069638;28;20048;-42
2021/03/16 12:42:03;;;;;;;12.43;6.68;;;23.70;45.80;;;;;;5070879;28;20044;-41
2021/03/16 12:44:31;;;;;;;11.00;6.13;;;23.70;45.10;;;;;;5070663;28;20040;-41
2021/03/16 12:46:59;;;;;;;12.18;6.72;;;23.70;45.10;;;;;;5069097;28;20098;-40
2021/03/16 12:49:26;;;;;;;10.88;6.03;;;23.70;45.10;;;;;;5070254;28;20041;-40
2021/03/16 12:51:53;;;;;;;14.65;6.28;;;23.70;45.10;;;;;;5070941;28;20056;-40
2021/03/16 12:54:22;;;;;;;13.40;5.93;;;23.70;45.10;;;;;;5069765;28;20119;-41
2021/03/16 12:56:50;;;;;;;11.95;6.53;;;23.70;45.10;;;;;;5073572;28;20130;-41